createdAt,value
2023-04-23T00:00:00.664Z,0.00
2023-04-23T00:01:00.634Z,0.00
2023-04-23T00:02:00.633Z,0.00
2023-04-23T00:03:00.819Z,0.00
2023-04-23T00:04:00.808Z,0.00
2023-04-23T00:05:00.640Z,0.00
2023-04-23T00:06:00.570Z,0.00
2023-04-23T00:07:00.563Z,0.00
2023-04-23T00:08:00.549Z,0.00
2023-04-23T00:09:00.532Z,0.00
2023-04-23T00:10:00.512Z,0.00
2023-04-23T00:11:00.527Z,0.00
2023-04-23T00:12:00.512Z,0.00
2023-04-23T00:13:00.462Z,0.00
2023-04-23T00:14:00.470Z,0.00
2023-04-23T00:15:00.449Z,0.00
2023-04-23T00:16:00.478Z,0.00
2023-04-23T00:17:00.426Z,0.00
2023-04-23T00:18:00.406Z,0.00
2023-04-23T00:19:00.383Z,0.00
2023-04-23T00:20:00.402Z,0.00
2023-04-23T00:21:00.374Z,0.00
2023-04-23T00:22:00.352Z,0.00
2023-04-23T00:23:00.333Z,0.00
2023-04-23T00:24:00.340Z,0.00
2023-04-23T00:25:00.315Z,0.00
2023-04-23T00:26:00.320Z,0.00
2023-04-23T00:27:00.289Z,0.00
2023-04-23T00:28:00.272Z,0.00
2023-04-23T00:29:00.272Z,0.00
2023-04-23T00:30:00.315Z,0.00
2023-04-23T00:31:00.230Z,0.00
2023-04-23T00:32:00.266Z,0.00
2023-04-23T00:33:00.265Z,0.00
2023-04-23T00:34:00.186Z,0.00
2023-04-23T00:35:00.194Z,0.00
2023-04-23T00:36:00.185Z,0.00
2023-04-23T00:37:00.155Z,0.00
2023-04-23T00:38:00.148Z,0.00
2023-04-23T00:39:00.122Z,0.00
2023-04-23T00:40:00.148Z,0.00
2023-04-23T00:41:00.121Z,0.00
2023-04-23T00:42:00.104Z,0.00
2023-04-23T00:43:00.117Z,0.00
2023-04-23T00:44:00.058Z,0.00
2023-04-23T00:45:00.034Z,0.00
2023-04-23T00:46:00.126Z,0.00
2023-04-23T00:47:00.009Z,0.00
2023-04-23T00:48:00.116Z,0.00
2023-04-23T00:48:59.993Z,0.00
2023-04-23T00:49:59.992Z,0.00
2023-04-23T00:50:59.954Z,0.00
2023-04-23T00:51:59.958Z,0.00
2023-04-23T00:52:59.942Z,0.00
2023-04-23T00:53:59.944Z,0.00
2023-04-23T00:54:59.898Z,0.00
2023-04-23T00:55:59.899Z,0.00
2023-04-23T00:56:59.897Z,0.00
2023-04-23T00:57:59.891Z,0.00
2023-04-23T00:58:59.847Z,0.00
2023-04-23T00:59:59.846Z,0.00
2023-04-23T01:00:59.872Z,0.00
2023-04-23T01:01:59.875Z,0.00
2023-04-23T01:02:59.906Z,0.00
2023-04-23T01:03:59.931Z,0.00
2023-04-23T01:04:59.797Z,0.00
2023-04-23T01:05:59.795Z,0.00
2023-04-23T01:06:59.762Z,0.00
2023-04-23T01:07:59.771Z,0.00
2023-04-23T01:08:59.713Z,0.00
2023-04-23T01:09:59.711Z,0.00
2023-04-23T01:10:59.698Z,0.00
2023-04-23T01:11:59.705Z,0.00
2023-04-23T01:12:59.674Z,0.00
2023-04-23T01:13:59.670Z,0.00
2023-04-23T01:14:59.662Z,0.00
2023-04-23T01:15:59.632Z,0.00
2023-04-23T01:16:59.627Z,0.00
2023-04-23T01:17:59.681Z,0.00
2023-04-23T01:18:59.608Z,0.00
2023-04-23T01:19:59.585Z,0.00
2023-04-23T01:20:59.562Z,0.00
2023-04-23T01:21:59.564Z,0.00
2023-04-23T01:22:59.549Z,0.00
2023-04-23T01:23:59.540Z,0.00
2023-04-23T01:24:59.514Z,0.00
2023-04-23T01:25:59.517Z,0.00
2023-04-23T01:26:59.497Z,0.00
2023-04-23T01:27:59.512Z,0.00
2023-04-23T01:28:59.509Z,0.00
2023-04-23T01:29:59.483Z,0.00
2023-04-23T01:30:59.476Z,0.00
2023-04-23T01:31:59.445Z,0.00
2023-04-23T01:32:59.462Z,0.00
2023-04-23T01:33:59.434Z,0.00
2023-04-23T01:34:59.390Z,0.00
2023-04-23T01:35:59.374Z,0.00
2023-04-23T01:36:59.371Z,0.00
2023-04-23T01:37:59.370Z,0.00
2023-04-23T01:38:59.341Z,0.00
2023-04-23T01:39:59.325Z,0.00
2023-04-23T01:40:59.301Z,0.00
2023-04-23T01:41:59.289Z,0.00
2023-04-23T01:42:59.288Z,0.00
2023-04-23T01:43:59.294Z,0.00
2023-04-23T01:44:59.229Z,0.00
2023-04-23T01:45:59.271Z,0.00
2023-04-23T01:46:59.242Z,0.00
2023-04-23T01:47:59.267Z,0.00
2023-04-23T01:48:59.185Z,0.00
2023-04-23T01:49:59.209Z,0.00
2023-04-23T01:50:59.168Z,0.00
2023-04-23T01:51:59.167Z,0.00
2023-04-23T01:52:59.146Z,0.00
2023-04-23T01:53:59.144Z,0.00
2023-04-23T01:54:59.117Z,0.00
2023-04-23T01:55:59.111Z,0.00
2023-04-23T01:56:59.142Z,0.00
2023-04-23T01:57:59.111Z,0.00
2023-04-23T01:58:59.076Z,0.00
2023-04-23T01:59:59.060Z,0.00
2023-04-23T02:00:59.053Z,0.00
2023-04-23T02:01:59.106Z,0.00
2023-04-23T02:02:59.086Z,0.00
2023-04-23T02:03:59.252Z,0.00
2023-04-23T02:04:58.976Z,0.00
2023-04-23T02:05:58.959Z,0.00
2023-04-23T02:06:58.955Z,0.00
2023-04-23T02:07:58.981Z,0.00
2023-04-23T02:08:58.936Z,0.00
2023-04-23T02:09:58.907Z,0.00
2023-04-23T02:10:58.898Z,0.00
2023-04-23T02:11:58.896Z,0.00
2023-04-23T02:13:02.937Z,0.00
2023-04-23T02:13:58.866Z,0.00
2023-04-23T02:14:58.851Z,0.00
2023-04-23T02:15:58.852Z,0.00
2023-04-23T02:16:58.825Z,0.00
2023-04-23T02:17:58.880Z,0.00
2023-04-23T02:18:58.785Z,0.00
2023-04-23T02:19:58.793Z,0.00
2023-04-23T02:20:58.778Z,0.00
2023-04-23T02:21:58.757Z,0.00
2023-04-23T02:22:58.762Z,0.00
2023-04-23T02:23:58.737Z,0.00
2023-04-23T02:24:58.721Z,0.00
2023-04-23T02:25:58.720Z,0.00
2023-04-23T02:26:58.682Z,0.00
2023-04-23T02:27:58.695Z,0.00
2023-04-23T02:28:58.671Z,0.00
2023-04-23T02:29:58.654Z,0.00
2023-04-23T02:30:58.665Z,0.00
2023-04-23T02:31:58.663Z,0.00
2023-04-23T02:32:58.692Z,0.00
2023-04-23T02:33:58.606Z,0.00
2023-04-23T02:34:58.581Z,0.00
2023-04-23T02:35:58.570Z,0.00
2023-04-23T02:36:58.553Z,0.00
2023-04-23T02:37:58.598Z,0.00
2023-04-23T02:38:58.523Z,0.00
2023-04-23T02:39:58.526Z,0.00
2023-04-23T02:40:58.500Z,0.00
2023-04-23T02:41:58.488Z,0.00
2023-04-23T02:42:58.498Z,0.00
2023-04-23T02:43:58.480Z,0.00
2023-04-23T02:44:58.447Z,0.00
2023-04-23T02:45:58.454Z,0.00
2023-04-23T02:46:58.486Z,0.00
2023-04-23T02:47:58.452Z,0.00
2023-04-23T02:48:58.408Z,0.00
2023-04-23T02:49:58.378Z,0.00
2023-04-23T02:50:58.359Z,0.00
2023-04-23T02:51:58.377Z,0.00
2023-04-23T02:52:58.361Z,0.00
2023-04-23T02:53:58.347Z,0.00
2023-04-23T02:54:58.309Z,0.00
2023-04-23T02:55:58.322Z,0.00
2023-04-23T02:56:58.308Z,0.00
2023-04-23T02:57:58.294Z,0.00
2023-04-23T02:58:58.275Z,0.00
2023-04-23T02:59:58.260Z,0.00
2023-04-23T03:00:58.399Z,0.00
2023-04-23T03:01:58.262Z,0.00
2023-04-23T03:02:58.310Z,0.00
2023-04-23T03:03:58.387Z,0.00
2023-04-23T03:04:58.226Z,0.00
2023-04-23T03:05:58.170Z,0.00
2023-04-23T03:06:58.178Z,0.00
2023-04-23T03:07:58.160Z,0.00
2023-04-23T03:08:58.140Z,0.00
2023-04-23T03:09:58.117Z,0.00
2023-04-23T03:10:58.100Z,0.00
2023-04-23T03:11:58.118Z,0.00
2023-04-23T03:12:58.095Z,0.00
2023-04-23T03:13:58.081Z,0.00
2023-04-23T03:14:58.047Z,0.00
2023-04-23T03:15:58.048Z,0.00
2023-04-23T03:16:58.109Z,0.00
2023-04-23T03:17:58.023Z,0.00
2023-04-23T03:18:58.007Z,0.00
2023-04-23T03:19:58.003Z,0.00
2023-04-23T03:20:57.965Z,0.00
2023-04-23T03:21:57.973Z,0.00
2023-04-23T03:22:57.964Z,0.00
2023-04-23T03:23:57.949Z,0.00
2023-04-23T03:24:57.953Z,0.00
2023-04-23T03:25:57.899Z,0.00
2023-04-23T03:26:57.896Z,0.00
2023-04-23T03:27:57.892Z,0.00
2023-04-23T03:28:57.878Z,0.00
2023-04-23T03:29:57.887Z,0.00
2023-04-23T03:30:57.915Z,0.00
2023-04-23T03:31:57.826Z,0.00
2023-04-23T03:32:57.888Z,0.00
2023-04-23T03:33:57.802Z,0.00
2023-04-23T03:34:57.794Z,0.00
2023-04-23T03:35:58.025Z,0.00
2023-04-23T03:36:57.776Z,0.00
2023-04-23T03:37:57.742Z,0.00
2023-04-23T03:38:57.733Z,0.00
2023-04-23T03:39:57.740Z,0.00
2023-04-23T03:40:57.716Z,0.00
2023-04-23T03:41:57.699Z,0.00
2023-04-23T03:42:57.776Z,0.00
2023-04-23T03:43:57.680Z,0.00
2023-04-23T03:44:57.675Z,0.00
2023-04-23T03:45:57.660Z,0.00
2023-04-23T03:46:57.636Z,0.00
2023-04-23T03:47:57.658Z,0.00
2023-04-23T03:48:57.616Z,0.00
2023-04-23T03:49:57.590Z,0.00
2023-04-23T03:50:57.592Z,0.00
2023-04-23T03:51:57.578Z,0.00
2023-04-23T03:52:57.578Z,0.00
2023-04-23T03:53:57.524Z,0.00
2023-04-23T03:54:57.525Z,0.00
2023-04-23T03:55:57.512Z,0.00
2023-04-23T03:56:57.523Z,0.00
2023-04-23T03:57:57.500Z,0.00
2023-04-23T03:58:57.496Z,0.00
2023-04-23T03:59:57.454Z,0.00
2023-04-23T04:00:57.443Z,0.00
2023-04-23T04:01:57.433Z,0.00
2023-04-23T04:02:57.616Z,0.00
2023-04-23T04:03:57.669Z,0.00
2023-04-23T04:04:57.641Z,0.00
2023-04-23T04:05:57.376Z,0.00
2023-04-23T04:06:57.371Z,0.00
2023-04-23T04:07:57.469Z,0.00
2023-04-23T04:08:57.350Z,0.00
2023-04-23T04:09:57.347Z,0.00
2023-04-23T04:10:57.313Z,0.00
2023-04-23T04:11:57.360Z,0.00
2023-04-23T04:12:57.284Z,0.00
2023-04-23T04:13:57.317Z,0.00
2023-04-23T04:14:57.326Z,0.00
2023-04-23T04:15:57.276Z,0.00
2023-04-23T04:16:57.253Z,0.00
2023-04-23T04:17:57.261Z,0.00
2023-04-23T04:18:57.200Z,0.00
2023-04-23T04:19:57.202Z,0.00
2023-04-23T04:20:57.188Z,0.00
2023-04-23T04:21:57.286Z,0.00
2023-04-23T04:22:57.160Z,0.00
2023-04-23T04:23:57.135Z,0.00
2023-04-23T04:24:57.150Z,0.00
2023-04-23T04:25:57.112Z,0.00
2023-04-23T04:26:57.121Z,0.00
2023-04-23T04:27:57.083Z,0.00
2023-04-23T04:28:57.078Z,0.00
2023-04-23T04:29:57.055Z,0.00
2023-04-23T04:30:57.049Z,0.00
2023-04-23T04:31:57.040Z,0.00
2023-04-23T04:32:57.045Z,0.00
2023-04-23T04:33:57.061Z,0.00
2023-04-23T04:34:57.057Z,0.00
2023-04-23T04:35:56.979Z,0.00
2023-04-23T04:36:56.977Z,0.00
2023-04-23T04:37:56.949Z,0.00
2023-04-23T04:38:56.936Z,0.00
2023-04-23T04:39:56.926Z,0.00
2023-04-23T04:40:56.915Z,0.00
2023-04-23T04:41:56.903Z,0.00
2023-04-23T04:42:56.887Z,0.00
2023-04-23T04:43:56.870Z,0.00
2023-04-23T04:44:56.872Z,0.00
2023-04-23T04:45:56.860Z,0.00
2023-04-23T04:46:56.883Z,0.00
2023-04-23T04:47:56.842Z,0.00
2023-04-23T04:48:56.819Z,5.62
2023-04-23T04:49:56.915Z,5.62
2023-04-23T04:50:56.783Z,5.62
2023-04-23T04:51:56.763Z,5.62
2023-04-23T04:52:56.751Z,5.62
2023-04-23T04:53:56.767Z,5.62
2023-04-23T04:54:56.741Z,5.62
2023-04-23T04:55:56.713Z,5.62
2023-04-23T04:56:56.811Z,5.62
2023-04-23T04:57:56.692Z,5.62
2023-04-23T04:58:56.710Z,5.62
2023-04-23T04:59:56.676Z,5.62
2023-04-23T05:00:56.688Z,5.62
2023-04-23T05:01:56.722Z,5.62
2023-04-23T05:02:56.785Z,5.62
2023-04-23T05:03:56.709Z,5.62
2023-04-23T05:04:56.614Z,5.62
2023-04-23T05:05:56.603Z,5.62
2023-04-23T05:06:56.590Z,5.62
2023-04-23T05:07:56.547Z,5.62
2023-04-23T05:08:56.551Z,5.62
2023-04-23T05:09:56.539Z,5.62
2023-04-23T05:10:56.528Z,5.62
2023-04-23T05:11:56.497Z,5.62
2023-04-23T05:12:56.501Z,5.62
2023-04-23T05:13:56.463Z,5.62
2023-04-23T05:14:56.477Z,5.62
2023-04-23T05:15:56.475Z,5.62
2023-04-23T05:16:56.459Z,5.62
2023-04-23T05:17:56.495Z,5.62
2023-04-23T05:18:56.426Z,5.62
2023-04-23T05:19:56.403Z,5.62
2023-04-23T05:20:56.390Z,5.62
2023-04-23T05:21:56.403Z,5.62
2023-04-23T05:22:56.359Z,11.25
2023-04-23T05:23:56.337Z,11.25
2023-04-23T05:24:56.332Z,11.25
2023-04-23T05:25:56.312Z,11.25
2023-04-23T05:26:56.332Z,11.25
2023-04-23T05:27:56.286Z,11.25
2023-04-23T05:28:56.283Z,11.25
2023-04-23T05:29:56.269Z,11.25
2023-04-23T05:30:56.281Z,16.88
2023-04-23T05:31:56.297Z,16.88
2023-04-23T05:32:56.292Z,16.88
2023-04-23T05:33:56.211Z,16.88
2023-04-23T05:34:56.217Z,22.50
2023-04-23T05:35:56.190Z,22.50
2023-04-23T05:36:56.185Z,22.50
2023-04-23T05:37:56.170Z,22.50
2023-04-23T05:38:56.138Z,22.50
2023-04-23T05:39:56.155Z,28.12
2023-04-23T05:40:56.153Z,28.12
2023-04-23T05:41:56.093Z,22.50
2023-04-23T05:42:56.085Z,22.50
2023-04-23T05:43:56.073Z,22.50
2023-04-23T05:44:56.074Z,22.50
2023-04-23T05:45:56.090Z,22.50
2023-04-23T05:46:56.036Z,22.50
2023-04-23T05:47:56.073Z,16.88
2023-04-23T05:48:56.016Z,16.88
2023-04-23T05:49:56.012Z,16.88
2023-04-23T05:50:55.988Z,16.88
2023-04-23T05:51:55.961Z,22.50
2023-04-23T05:52:55.957Z,22.50
2023-04-23T05:53:55.971Z,22.50
2023-04-23T05:54:55.944Z,28.12
2023-04-23T05:55:55.921Z,28.12
2023-04-23T05:56:55.913Z,33.75
2023-04-23T05:57:55.878Z,33.75
2023-04-23T05:58:55.897Z,39.38
2023-04-23T05:59:55.863Z,39.38
2023-04-23T06:00:55.866Z,39.38
2023-04-23T06:01:55.819Z,45.00
2023-04-23T06:02:55.879Z,45.00
2023-04-23T06:03:56.202Z,45.00
2023-04-23T06:04:55.899Z,45.00
2023-04-23T06:05:55.860Z,45.00
2023-04-23T06:06:55.809Z,50.62
2023-04-23T06:07:55.746Z,56.25
2023-04-23T06:08:55.783Z,61.88
2023-04-23T06:09:55.741Z,67.50
2023-04-23T06:10:55.712Z,73.12
2023-04-23T06:11:55.683Z,73.12
2023-04-23T06:12:55.864Z,73.12
2023-04-23T06:13:55.673Z,73.12
2023-04-23T06:14:55.684Z,73.12
2023-04-23T06:15:55.691Z,73.12
2023-04-23T06:16:55.668Z,73.12
2023-04-23T06:17:55.686Z,73.12
2023-04-23T06:18:55.608Z,73.12
2023-04-23T06:19:55.597Z,78.75
2023-04-23T06:20:55.590Z,78.75
2023-04-23T06:21:55.573Z,78.75
2023-04-23T06:22:55.580Z,84.38
2023-04-23T06:23:55.536Z,84.38
2023-04-23T06:24:55.525Z,84.38
2023-04-23T06:25:55.526Z,78.75
2023-04-23T06:26:55.486Z,73.12
2023-04-23T06:27:55.482Z,67.50
2023-04-23T06:28:55.473Z,56.25
2023-04-23T06:29:55.523Z,50.62
2023-04-23T06:30:55.449Z,45.00
2023-04-23T06:31:55.439Z,45.00
2023-04-23T06:32:59.249Z,39.38
2023-04-23T06:33:55.433Z,39.38
2023-04-23T06:35:01.533Z,39.38
2023-04-23T06:35:56.375Z,39.38
2023-04-23T06:36:55.367Z,39.38
2023-04-23T06:37:55.354Z,45.00
2023-04-23T06:38:55.338Z,45.00
2023-04-23T06:39:55.319Z,50.62
2023-04-23T06:40:55.321Z,56.25
2023-04-23T06:41:55.294Z,56.25
2023-04-23T06:42:55.293Z,56.25
2023-04-23T06:43:55.282Z,61.88
2023-04-23T06:44:55.273Z,67.50
2023-04-23T06:45:55.252Z,73.12
2023-04-23T06:46:55.341Z,84.38
2023-04-23T06:47:55.247Z,101.25
2023-04-23T06:48:55.216Z,135.00
2023-04-23T06:49:55.185Z,174.38
2023-04-23T06:50:55.176Z,196.88
2023-04-23T06:51:57.506Z,196.88
2023-04-23T06:52:55.155Z,213.75
2023-04-23T06:53:55.134Z,196.88
2023-04-23T06:54:55.134Z,196.88
2023-04-23T06:55:55.123Z,230.62
2023-04-23T06:56:55.217Z,253.12
2023-04-23T06:57:55.090Z,264.38
2023-04-23T06:58:55.104Z,247.50
2023-04-23T06:59:55.070Z,219.38
2023-04-23T07:00:55.114Z,202.50
2023-04-23T07:01:55.056Z,185.62
2023-04-23T07:02:55.125Z,180.00
2023-04-23T07:03:55.020Z,163.12
2023-04-23T07:04:55.024Z,146.25
2023-04-23T07:05:55.007Z,135.00
2023-04-23T07:06:55.049Z,135.00
2023-04-23T07:07:54.958Z,146.25
2023-04-23T07:08:54.958Z,146.25
2023-04-23T07:09:54.966Z,146.25
2023-04-23T07:10:54.936Z,146.25
2023-04-23T07:11:54.949Z,157.50
2023-04-23T07:12:54.901Z,157.50
2023-04-23T07:13:54.906Z,163.12
2023-04-23T07:14:54.899Z,168.75
2023-04-23T07:15:54.874Z,202.50
2023-04-23T07:16:54.901Z,241.88
2023-04-23T07:17:54.912Z,247.50
2023-04-23T07:18:54.836Z,208.12
2023-04-23T07:19:55.007Z,258.75
2023-04-23T07:20:54.827Z,208.12
2023-04-23T07:21:54.784Z,174.38
2023-04-23T07:22:54.781Z,146.25
2023-04-23T07:23:54.783Z,135.00
2023-04-23T07:24:54.774Z,140.62
2023-04-23T07:25:54.752Z,157.50
2023-04-23T07:26:54.751Z,157.50
2023-04-23T07:27:54.810Z,163.12
2023-04-23T07:28:54.738Z,185.62
2023-04-23T07:29:54.717Z,253.12
2023-04-23T07:30:54.680Z,320.62
2023-04-23T07:31:54.690Z,264.38
2023-04-23T07:32:54.668Z,219.38
2023-04-23T07:33:54.638Z,213.75
2023-04-23T07:34:54.632Z,202.50
2023-04-23T07:35:54.617Z,213.75
2023-04-23T07:36:54.612Z,213.75
2023-04-23T07:37:54.591Z,180.00
2023-04-23T07:38:54.595Z,157.50
2023-04-23T07:39:54.544Z,163.12
2023-04-23T07:40:54.548Z,168.75
2023-04-23T07:41:54.520Z,180.00
2023-04-23T07:42:54.532Z,185.62
2023-04-23T07:43:54.513Z,180.00
2023-04-23T07:44:54.504Z,168.75
2023-04-23T07:45:54.545Z,157.50
2023-04-23T07:46:54.472Z,140.62
2023-04-23T07:47:54.471Z,135.00
2023-04-23T07:48:54.457Z,135.00
2023-04-23T07:49:54.430Z,140.62
2023-04-23T07:50:54.424Z,140.62
2023-04-23T07:51:54.397Z,140.62
2023-04-23T07:52:54.374Z,157.50
2023-04-23T07:53:54.366Z,163.12
2023-04-23T07:54:54.381Z,157.50
2023-04-23T07:55:54.349Z,146.25
2023-04-23T07:56:54.320Z,151.88
2023-04-23T07:57:54.341Z,163.12
2023-04-23T07:58:54.459Z,168.75
2023-04-23T07:59:54.320Z,174.38
2023-04-23T08:00:54.330Z,163.12
2023-04-23T08:01:54.291Z,163.12
2023-04-23T08:02:54.332Z,157.50
2023-04-23T08:03:55.655Z,151.88
2023-04-23T08:04:54.532Z,135.00
2023-04-23T08:05:54.219Z,123.75
2023-04-23T08:06:54.226Z,118.12
2023-04-23T08:07:54.186Z,112.50
2023-04-23T08:08:54.197Z,106.88
2023-04-23T08:09:54.193Z,101.25
2023-04-23T08:10:54.159Z,101.25
2023-04-23T08:11:54.134Z,106.88
2023-04-23T08:12:54.121Z,106.88
2023-04-23T08:13:54.117Z,106.88
2023-04-23T08:14:54.118Z,112.50
2023-04-23T08:15:54.112Z,123.75
2023-04-23T08:16:54.065Z,129.38
2023-04-23T08:17:54.071Z,129.38
2023-04-23T08:19:04.120Z,123.75
2023-04-23T08:19:55.063Z,118.12
2023-04-23T08:20:54.012Z,106.88
2023-04-23T08:21:54.018Z,90.00
2023-04-23T08:22:54.003Z,67.50
2023-04-23T08:23:53.975Z,50.62
2023-04-23T08:24:53.979Z,39.38
2023-04-23T08:25:53.974Z,28.12
2023-04-23T08:26:53.993Z,28.12
2023-04-23T08:27:53.956Z,33.75
2023-04-23T08:28:53.899Z,33.75
2023-04-23T08:29:53.938Z,39.38
2023-04-23T08:30:53.923Z,45.00
2023-04-23T08:31:53.923Z,45.00
2023-04-23T08:32:54.184Z,50.62
2023-04-23T08:33:53.848Z,56.25
2023-04-23T08:34:53.850Z,61.88
2023-04-23T08:35:53.815Z,67.50
2023-04-23T08:36:53.797Z,73.12
2023-04-23T08:37:53.780Z,78.75
2023-04-23T08:38:53.759Z,78.75
2023-04-23T08:39:53.777Z,90.00
2023-04-23T08:40:53.739Z,90.00
2023-04-23T08:41:53.774Z,95.62
2023-04-23T08:42:53.745Z,95.62
2023-04-23T08:43:53.720Z,95.62
2023-04-23T08:44:53.694Z,90.00
2023-04-23T08:45:53.688Z,90.00
2023-04-23T08:46:53.706Z,90.00
2023-04-23T08:47:53.722Z,90.00
2023-04-23T08:48:53.653Z,90.00
2023-04-23T08:49:53.636Z,95.62
2023-04-23T08:50:53.650Z,101.25
2023-04-23T08:51:53.654Z,106.88
2023-04-23T08:52:53.584Z,112.50
2023-04-23T08:53:53.607Z,118.12
2023-04-23T08:54:53.585Z,123.75
2023-04-23T08:55:53.587Z,123.75
2023-04-23T08:56:53.577Z,123.75
2023-04-23T08:57:53.673Z,129.38
2023-04-23T08:58:55.712Z,135.00
2023-04-23T08:59:53.486Z,135.00
2023-04-23T09:00:54.212Z,135.00
2023-04-23T09:01:53.524Z,129.38
2023-04-23T09:02:53.659Z,129.38
2023-04-23T09:03:53.526Z,123.75
2023-04-23T09:04:54.867Z,118.12
2023-04-23T09:05:53.422Z,112.50
2023-04-23T09:06:53.446Z,106.88
2023-04-23T09:07:53.396Z,95.62
2023-04-23T09:08:53.529Z,90.00
2023-04-23T09:09:53.371Z,84.38
2023-04-23T09:10:54.023Z,78.75
2023-04-23T09:11:54.907Z,78.75
2023-04-23T09:12:53.327Z,78.75
2023-04-23T09:13:53.303Z,78.75
2023-04-23T09:14:53.319Z,78.75
2023-04-23T09:15:53.283Z,78.75
2023-04-23T09:16:53.310Z,84.38
2023-04-23T09:17:53.269Z,90.00
2023-04-23T09:18:53.236Z,101.25
2023-04-23T09:19:53.233Z,106.88
2023-04-23T09:20:53.209Z,118.12
2023-04-23T09:21:53.420Z,123.75
2023-04-23T09:22:53.193Z,129.38
2023-04-23T09:23:53.209Z,129.38
2023-04-23T09:24:53.255Z,135.00
2023-04-23T09:25:53.140Z,140.62
2023-04-23T09:26:53.132Z,140.62
2023-04-23T09:27:53.172Z,146.25
2023-04-23T09:28:53.154Z,151.88
2023-04-23T09:29:53.287Z,157.50
2023-04-23T09:30:53.082Z,157.50
2023-04-23T09:31:53.188Z,163.12
2023-04-23T09:32:53.092Z,168.75
2023-04-23T09:33:53.046Z,180.00
2023-04-23T09:34:53.022Z,185.62
2023-04-23T09:35:53.029Z,213.75
2023-04-23T09:36:53.015Z,219.38
2023-04-23T09:37:53.023Z,225.00
2023-04-23T09:38:52.983Z,219.38
2023-04-23T09:39:53.666Z,225.00
2023-04-23T09:40:52.974Z,236.25
2023-04-23T09:41:52.927Z,247.50
2023-04-23T09:42:52.940Z,253.12
2023-04-23T09:43:52.902Z,264.38
2023-04-23T09:44:52.922Z,264.38
2023-04-23T09:45:52.915Z,253.12
2023-04-23T09:46:52.858Z,247.50
2023-04-23T09:47:52.939Z,247.50
2023-04-23T09:48:52.863Z,247.50
2023-04-23T09:49:52.866Z,247.50
2023-04-23T09:50:52.812Z,258.75
2023-04-23T09:51:52.796Z,270.00
2023-04-23T09:52:52.792Z,275.62
2023-04-23T09:53:52.781Z,275.62
2023-04-23T09:54:52.777Z,275.62
2023-04-23T09:55:52.738Z,270.00
2023-04-23T09:56:52.854Z,270.00
2023-04-23T09:57:52.738Z,264.38
2023-04-23T09:58:52.714Z,264.38
2023-04-23T10:00:00.182Z,264.38
2023-04-23T10:00:53.737Z,264.38
2023-04-23T10:01:52.675Z,275.62
2023-04-23T10:02:52.855Z,371.25
2023-04-23T10:03:53.526Z,337.50
2023-04-23T10:04:58.326Z,303.75
2023-04-23T10:06:01.113Z,371.25
2023-04-23T10:07:07.642Z,388.12
2023-04-23T10:07:53.593Z,376.88
2023-04-23T10:08:52.563Z,382.50
2023-04-23T10:09:52.583Z,388.12
2023-04-23T10:11:03.186Z,365.62
2023-04-23T10:11:53.535Z,360.00
2023-04-23T10:12:55.291Z,360.00
2023-04-23T10:13:52.515Z,343.12
2023-04-23T10:14:52.514Z,320.62
2023-04-23T10:15:52.538Z,309.38
2023-04-23T10:16:52.490Z,320.62
2023-04-23T10:17:52.701Z,303.75
2023-04-23T10:18:52.441Z,331.88
2023-04-23T10:19:52.452Z,348.75
2023-04-23T10:20:52.413Z,303.75
2023-04-23T10:21:56.175Z,326.25
2023-04-23T10:22:53.386Z,315.00
2023-04-23T10:23:52.383Z,315.00
2023-04-23T10:24:52.408Z,382.50
2023-04-23T10:25:52.362Z,298.12
2023-04-23T10:26:52.350Z,286.88
2023-04-23T10:27:54.305Z,343.12
2023-04-23T10:28:52.320Z,337.50
2023-04-23T10:29:52.329Z,382.50
2023-04-23T10:30:52.323Z,376.88
2023-04-23T10:31:52.280Z,399.38
2023-04-23T10:32:52.314Z,354.38
2023-04-23T10:33:59.427Z,348.75
2023-04-23T10:34:53.245Z,343.12
2023-04-23T10:35:52.232Z,388.12
2023-04-23T10:36:52.212Z,365.62
2023-04-23T10:37:52.211Z,360.00
2023-04-23T10:38:57.966Z,382.50
2023-04-23T10:39:53.192Z,365.62
2023-04-23T10:40:52.183Z,348.75
2023-04-23T10:41:52.150Z,303.75
2023-04-23T10:42:52.153Z,343.12
2023-04-23T10:43:52.116Z,348.75
2023-04-23T10:45:00.866Z,320.62
2023-04-23T10:45:53.121Z,337.50
2023-04-23T10:46:52.133Z,337.50
2023-04-23T10:47:52.143Z,343.12
2023-04-23T10:48:52.769Z,343.12
2023-04-23T10:49:52.911Z,348.75
2023-04-23T10:51:06.977Z,298.12
2023-04-23T10:52:51.995Z,331.88
2023-04-23T10:53:51.997Z,331.88
2023-04-23T10:54:52.084Z,331.88
2023-04-23T10:55:51.964Z,337.50
2023-04-23T10:56:51.957Z,219.38
2023-04-23T10:57:51.944Z,264.38
2023-04-23T10:58:52.075Z,230.62
2023-04-23T10:59:51.951Z,286.88
2023-04-23T11:00:51.892Z,303.75
2023-04-23T11:01:52.022Z,326.25
2023-04-23T11:02:51.965Z,326.25
2023-04-23T11:03:52.096Z,337.50
2023-04-23T11:04:52.160Z,331.88
2023-04-23T11:05:51.839Z,270.00
2023-04-23T11:06:51.818Z,331.88
2023-04-23T11:07:51.816Z,320.62
2023-04-23T11:08:51.786Z,320.62
2023-04-23T11:09:51.809Z,320.62
2023-04-23T11:10:51.771Z,202.50
2023-04-23T11:11:51.804Z,303.75
2023-04-23T11:12:51.730Z,303.75
2023-04-23T11:13:51.732Z,315.00
2023-04-23T11:14:51.717Z,275.62
2023-04-23T11:15:51.701Z,320.62
2023-04-23T11:16:51.757Z,315.00
2023-04-23T11:17:51.739Z,309.38
2023-04-23T11:18:51.653Z,309.38
2023-04-23T11:19:51.661Z,309.38
2023-04-23T11:20:51.627Z,309.38
2023-04-23T11:21:51.653Z,309.38
2023-04-23T11:22:51.609Z,298.12
2023-04-23T11:23:51.602Z,286.88
2023-04-23T11:24:51.579Z,286.88
2023-04-23T11:25:51.615Z,286.88
2023-04-23T11:26:51.555Z,275.62
2023-04-23T11:27:51.586Z,281.25
2023-04-23T11:28:51.525Z,275.62
2023-04-23T11:29:51.543Z,281.25
2023-04-23T11:30:51.504Z,275.62
2023-04-23T11:32:01.655Z,281.25
2023-04-23T11:32:52.672Z,281.25
2023-04-23T11:33:51.469Z,275.62
2023-04-23T11:34:51.457Z,275.62
2023-04-23T11:35:51.439Z,270.00
2023-04-23T11:36:51.428Z,270.00
2023-04-23T11:37:51.431Z,270.00
2023-04-23T11:38:51.396Z,241.88
2023-04-23T11:39:51.404Z,264.38
2023-04-23T11:40:51.378Z,264.38
2023-04-23T11:41:51.391Z,264.38
2023-04-23T11:42:51.379Z,270.00
2023-04-23T11:43:52.046Z,270.00
2023-04-23T11:44:51.375Z,270.00
2023-04-23T11:45:51.357Z,270.00
2023-04-23T11:46:51.316Z,270.00
2023-04-23T11:47:51.354Z,270.00
2023-04-23T11:48:51.308Z,275.62
2023-04-23T11:49:51.265Z,270.00
2023-04-23T11:50:51.247Z,270.00
2023-04-23T11:51:51.232Z,270.00
2023-04-23T11:52:51.227Z,275.62
2023-04-23T11:53:51.230Z,275.62
2023-04-23T11:54:51.188Z,275.62
2023-04-23T11:55:55.106Z,270.00
2023-04-23T11:56:51.504Z,275.62
2023-04-23T11:57:51.158Z,275.62
2023-04-23T11:58:51.155Z,151.88
2023-04-23T11:59:51.163Z,270.00
2023-04-23T12:00:51.142Z,264.38
2023-04-23T12:01:51.106Z,258.75
2023-04-23T12:02:51.216Z,258.75
2023-04-23T12:03:51.219Z,258.75
2023-04-23T12:04:51.121Z,258.75
2023-04-23T12:05:51.069Z,264.38
2023-04-23T12:06:51.054Z,264.38
2023-04-23T12:07:51.033Z,264.38
2023-04-23T12:08:51.023Z,264.38
2023-04-23T12:09:51.028Z,258.75
2023-04-23T12:10:51.058Z,253.12
2023-04-23T12:11:50.973Z,253.12
2023-04-23T12:12:50.984Z,253.12
2023-04-23T12:13:50.949Z,253.12
2023-04-23T12:14:50.958Z,253.12
2023-04-23T12:15:51.678Z,253.12
2023-04-23T12:16:50.914Z,253.12
2023-04-23T12:17:50.942Z,253.12
2023-04-23T12:18:50.884Z,135.00
2023-04-23T12:19:50.902Z,129.38
2023-04-23T12:20:51.569Z,247.50
2023-04-23T12:21:50.860Z,253.12
2023-04-23T12:22:50.864Z,213.75
2023-04-23T12:23:50.826Z,247.50
2023-04-23T12:24:50.841Z,253.12
2023-04-23T12:25:50.788Z,253.12
2023-04-23T12:26:50.836Z,253.12
2023-04-23T12:27:50.780Z,253.12
2023-04-23T12:28:50.773Z,253.12
2023-04-23T12:29:50.819Z,253.12
2023-04-23T12:30:50.732Z,253.12
2023-04-23T12:31:51.027Z,253.12
2023-04-23T12:32:50.728Z,219.38
2023-04-23T12:33:50.695Z,247.50
2023-04-23T12:34:50.695Z,180.00
2023-04-23T12:35:50.685Z,275.62
2023-04-23T12:36:50.660Z,208.12
2023-04-23T12:37:50.637Z,208.12
2023-04-23T12:38:50.635Z,151.88
2023-04-23T12:39:50.616Z,146.25
2023-04-23T12:40:50.632Z,151.88
2023-04-23T12:41:50.585Z,151.88
2023-04-23T12:42:50.585Z,151.88
2023-04-23T12:43:50.570Z,151.88
2023-04-23T12:44:50.575Z,151.88
2023-04-23T12:45:50.529Z,157.50
2023-04-23T12:46:50.587Z,157.50
2023-04-23T12:47:50.578Z,163.12
2023-04-23T12:48:50.519Z,174.38
2023-04-23T12:49:50.496Z,174.38
2023-04-23T12:50:50.484Z,174.38
2023-04-23T12:51:50.465Z,185.62
2023-04-23T12:52:50.441Z,208.12